sensor_id;sensor_type;location;lat;lon;timestamp;temperature;humidity
11963;DHT22;62678;52.130;5.584;2023-09-30T00:00:09;12.60;99.90
11963;DHT22;62678;52.130;5.584;2023-09-30T00:02:36;12.60;99.90
11963;DHT22;62678;52.130;5.584;2023-09-30T00:05:04;12.60;99.90
11963;DHT22;62678;52.130;5.584;2023-09-30T00:07:31;12.60;99.90
11963;DHT22;62678;52.130;5.584;2023-09-30T00:09:59;12.60;99.90
11963;DHT22;62678;52.130;5.584;2023-09-30T00:12:26;12.70;99.90
11963;DHT22;62678;52.130;5.584;2023-09-30T00:14:53;12.70;99.90
11963;DHT22;62678;52.130;5.584;2023-09-30T00:17:20;12.70;99.90
11963;DHT22;62678;52.130;5.584;2023-09-30T00:19:47;12.70;99.90
11963;DHT22;62678;52.130;5.584;2023-09-30T00:22:14;12.70;99.90
11963;DHT22;62678;52.130;5.584;2023-09-30T00:24:41;12.70;99.90
11963;DHT22;62678;52.130;5.584;2023-09-30T00:27:09;12.70;99.90
11963;DHT22;62678;52.130;5.584;2023-09-30T00:29:36;12.70;99.90
11963;DHT22;62678;52.130;5.584;2023-09-30T00:32:03;12.70;99.90
11963;DHT22;62678;52.130;5.584;2023-09-30T00:34:33;12.70;99.90
11963;DHT22;62678;52.130;5.584;2023-09-30T00:37:00;12.70;99.90
11963;DHT22;62678;52.130;5.584;2023-09-30T00:39:27;12.70;99.90
11963;DHT22;62678;52.130;5.584;2023-09-30T00:41:56;12.70;99.90
11963;DHT22;62678;52.130;5.584;2023-09-30T00:44:25;12.60;99.90
11963;DHT22;62678;52.130;5.584;2023-09-30T00:46:52;12.60;99.90
11963;DHT22;62678;52.130;5.584;2023-09-30T00:49:21;12.60;99.90
11963;DHT22;62678;52.130;5.584;2023-09-30T00:51:49;12.60;99.90
11963;DHT22;62678;52.130;5.584;2023-09-30T00:54:17;12.60;99.90
11963;DHT22;62678;52.130;5.584;2023-09-30T00:56:45;12.60;99.90
11963;DHT22;62678;52.130;5.584;2023-09-30T00:59:13;12.60;99.90
11963;DHT22;62678;52.130;5.584;2023-09-30T01:01:42;12.60;99.90
11963;DHT22;62678;52.130;5.584;2023-09-30T01:04:10;12.60;99.90
11963;DHT22;62678;52.130;5.584;2023-09-30T01:06:37;12.70;99.90
11963;DHT22;62678;52.130;5.584;2023-09-30T01:09:05;12.70;99.90
11963;DHT22;62678;52.130;5.584;2023-09-30T01:11:32;12.60;99.90
11963;DHT22;62678;52.130;5.584;2023-09-30T01:13:59;12.60;99.90
11963;DHT22;62678;52.130;5.584;2023-09-30T01:16:26;12.60;99.90
11963;DHT22;62678;52.130;5.584;2023-09-30T01:18:54;12.50;99.90
11963;DHT22;62678;52.130;5.584;2023-09-30T01:21:21;12.50;99.90
11963;DHT22;62678;52.130;5.584;2023-09-30T01:23:50;12.50;99.90
11963;DHT22;62678;52.130;5.584;2023-09-30T01:26:18;12.40;99.90
11963;DHT22;62678;52.130;5.584;2023-09-30T01:28:45;12.40;99.90
11963;DHT22;62678;52.130;5.584;2023-09-30T01:31:14;12.40;99.90
11963;DHT22;62678;52.130;5.584;2023-09-30T01:33:41;12.40;99.90
11963;DHT22;62678;52.130;5.584;2023-09-30T01:36:08;12.40;99.90
11963;DHT22;62678;52.130;5.584;2023-09-30T01:38:35;12.50;99.90
11963;DHT22;62678;52.130;5.584;2023-09-30T01:41:03;12.50;99.90
11963;DHT22;62678;52.130;5.584;2023-09-30T01:43:30;12.50;99.90
11963;DHT22;62678;52.130;5.584;2023-09-30T01:45:57;12.60;99.90
11963;DHT22;62678;52.130;5.584;2023-09-30T01:48:24;12.70;99.90
11963;DHT22;62678;52.130;5.584;2023-09-30T01:50:51;12.70;99.90
11963;DHT22;62678;52.130;5.584;2023-09-30T01:53:18;12.80;99.90
11963;DHT22;62678;52.130;5.584;2023-09-30T01:55:45;12.80;99.90
11963;DHT22;62678;52.130;5.584;2023-09-30T01:58:15;12.90;99.90
11963;DHT22;62678;52.130;5.584;2023-09-30T02:00:42;12.90;99.90
11963;DHT22;62678;52.130;5.584;2023-09-30T02:03:09;12.80;99.90
11963;DHT22;62678;52.130;5.584;2023-09-30T02:05:38;12.80;99.90
11963;DHT22;62678;52.130;5.584;2023-09-30T02:08:05;12.80;99.90
11963;DHT22;62678;52.130;5.584;2023-09-30T02:10:32;12.70;99.90
11963;DHT22;62678;52.130;5.584;2023-09-30T02:12:59;12.70;99.90
11963;DHT22;62678;52.130;5.584;2023-09-30T02:15:28;12.60;99.90
11963;DHT22;62678;52.130;5.584;2023-09-30T02:17:55;12.50;99.90
11963;DHT22;62678;52.130;5.584;2023-09-30T02:20:22;12.50;99.90
11963;DHT22;62678;52.130;5.584;2023-09-30T02:22:51;12.50;99.90
11963;DHT22;62678;52.130;5.584;2023-09-30T02:25:19;12.40;99.90
11963;DHT22;62678;52.130;5.584;2023-09-30T02:27:49;12.40;99.90
11963;DHT22;62678;52.130;5.584;2023-09-30T02:30:16;12.40;99.90
11963;DHT22;62678;52.130;5.584;2023-09-30T02:32:44;12.30;99.90
11963;DHT22;62678;52.130;5.584;2023-09-30T02:35:12;12.30;99.90
11963;DHT22;62678;52.130;5.584;2023-09-30T02:37:40;12.30;99.90
11963;DHT22;62678;52.130;5.584;2023-09-30T02:40:08;12.40;99.90
11963;DHT22;62678;52.130;5.584;2023-09-30T02:42:36;12.40;99.90
11963;DHT22;62678;52.130;5.584;2023-09-30T02:45:04;12.40;99.90
11963;DHT22;62678;52.130;5.584;2023-09-30T02:47:31;12.40;99.90
11963;DHT22;62678;52.130;5.584;2023-09-30T02:49:59;12.50;99.90
11963;DHT22;62678;52.130;5.584;2023-09-30T02:52:26;12.50;99.90
11963;DHT22;62678;52.130;5.584;2023-09-30T02:54:54;12.50;99.90
11963;DHT22;62678;52.130;5.584;2023-09-30T02:57:23;12.50;99.90
11963;DHT22;62678;52.130;5.584;2023-09-30T02:59:50;12.50;99.90
11963;DHT22;62678;52.130;5.584;2023-09-30T03:02:18;12.50;99.90
11963;DHT22;62678;52.130;5.584;2023-09-30T03:04:46;12.50;99.90
11963;DHT22;62678;52.130;5.584;2023-09-30T03:07:18;12.50;99.90
11963;DHT22;62678;52.130;5.584;2023-09-30T03:09:45;12.50;99.90
11963;DHT22;62678;52.130;5.584;2023-09-30T03:12:12;12.60;99.90
11963;DHT22;62678;52.130;5.584;2023-09-30T03:14:39;12.50;99.90
11963;DHT22;62678;52.130;5.584;2023-09-30T03:17:06;12.60;99.90
11963;DHT22;62678;52.130;5.584;2023-09-30T03:19:37;12.60;99.90
11963;DHT22;62678;52.130;5.584;2023-09-30T03:22:04;12.60;99.90
11963;DHT22;62678;52.130;5.584;2023-09-30T03:24:32;12.60;99.90
11963;DHT22;62678;52.130;5.584;2023-09-30T03:27:00;12.60;99.90
11963;DHT22;62678;52.130;5.584;2023-09-30T03:29:27;12.60;99.90
11963;DHT22;62678;52.130;5.584;2023-09-30T03:31:54;12.70;99.90
11963;DHT22;62678;52.130;5.584;2023-09-30T03:34:22;12.70;99.90
11963;DHT22;62678;52.130;5.584;2023-09-30T03:36:49;12.70;99.90
11963;DHT22;62678;52.130;5.584;2023-09-30T03:39:16;12.70;99.90
11963;DHT22;62678;52.130;5.584;2023-09-30T03:41:54;12.80;99.90
11963;DHT22;62678;52.130;5.584;2023-09-30T03:44:21;12.80;99.90
11963;DHT22;62678;52.130;5.584;2023-09-30T03:46:50;12.80;99.90
11963;DHT22;62678;52.130;5.584;2023-09-30T03:49:17;12.80;99.90
11963;DHT22;62678;52.130;5.584;2023-09-30T03:51:45;12.80;99.90
11963;DHT22;62678;52.130;5.584;2023-09-30T03:54:12;12.80;99.90
11963;DHT22;62678;52.130;5.584;2023-09-30T03:56:39;12.80;99.90
11963;DHT22;62678;52.130;5.584;2023-09-30T03:59:08;12.80;99.90
11963;DHT22;62678;52.130;5.584;2023-09-30T04:01:35;12.90;99.90
11963;DHT22;62678;52.130;5.584;2023-09-30T04:04:06;12.90;99.90
11963;DHT22;62678;52.130;5.584;2023-09-30T04:06:35;12.90;99.90
11963;DHT22;62678;52.130;5.584;2023-09-30T04:09:03;12.90;99.90
11963;DHT22;62678;52.130;5.584;2023-09-30T04:11:35;12.90;99.90
11963;DHT22;62678;52.130;5.584;2023-09-30T04:14:02;12.90;99.90
11963;DHT22;62678;52.130;5.584;2023-09-30T04:16:31;12.90;99.90
11963;DHT22;62678;52.130;5.584;2023-09-30T04:18:58;13.00;99.90
11963;DHT22;62678;52.130;5.584;2023-09-30T04:21:25;13.00;99.90
11963;DHT22;62678;52.130;5.584;2023-09-30T04:23:54;13.00;99.90
11963;DHT22;62678;52.130;5.584;2023-09-30T04:26:22;13.00;99.90
11963;DHT22;62678;52.130;5.584;2023-09-30T04:28:48;13.00;99.90
11963;DHT22;62678;52.130;5.584;2023-09-30T04:31:18;13.00;99.90
11963;DHT22;62678;52.130;5.584;2023-09-30T04:33:48;13.00;99.90
11963;DHT22;62678;52.130;5.584;2023-09-30T04:36:17;13.00;99.90
11963;DHT22;62678;52.130;5.584;2023-09-30T04:38:44;13.00;99.90
11963;DHT22;62678;52.130;5.584;2023-09-30T04:41:11;13.00;99.90
11963;DHT22;62678;52.130;5.584;2023-09-30T04:43:38;13.00;99.90
11963;DHT22;62678;52.130;5.584;2023-09-30T04:46:05;13.00;99.90
11963;DHT22;62678;52.130;5.584;2023-09-30T04:48:33;13.00;99.90
11963;DHT22;62678;52.130;5.584;2023-09-30T04:51:05;13.00;99.90
11963;DHT22;62678;52.130;5.584;2023-09-30T04:53:33;13.00;99.90
11963;DHT22;62678;52.130;5.584;2023-09-30T04:56:01;12.90;99.90
11963;DHT22;62678;52.130;5.584;2023-09-30T04:58:28;12.90;99.90
11963;DHT22;62678;52.130;5.584;2023-09-30T05:00:57;12.90;99.90
11963;DHT22;62678;52.130;5.584;2023-09-30T05:03:24;13.00;99.90
11963;DHT22;62678;52.130;5.584;2023-09-30T05:05:51;12.90;99.90
11963;DHT22;62678;52.130;5.584;2023-09-30T05:08:22;12.90;99.90
11963;DHT22;62678;52.130;5.584;2023-09-30T05:10:49;12.80;99.90
11963;DHT22;62678;52.130;5.584;2023-09-30T05:13:16;12.80;99.90
11963;DHT22;62678;52.130;5.584;2023-09-30T05:15:44;12.90;99.90
11963;DHT22;62678;52.130;5.584;2023-09-30T05:18:12;12.90;99.90
11963;DHT22;62678;52.130;5.584;2023-09-30T05:20:39;12.80;99.90
11963;DHT22;62678;52.130;5.584;2023-09-30T05:23:06;12.80;99.90
11963;DHT22;62678;52.130;5.584;2023-09-30T05:25:35;12.80;99.90
11963;DHT22;62678;52.130;5.584;2023-09-30T05:28:03;12.70;99.90
11963;DHT22;62678;52.130;5.584;2023-09-30T05:30:31;12.70;99.90
11963;DHT22;62678;52.130;5.584;2023-09-30T05:32:58;12.70;99.90
11963;DHT22;62678;52.130;5.584;2023-09-30T05:35:25;12.60;99.90
11963;DHT22;62678;52.130;5.584;2023-09-30T05:37:53;12.60;99.90
11963;DHT22;62678;52.130;5.584;2023-09-30T05:40:21;12.60;99.90
11963;DHT22;62678;52.130;5.584;2023-09-30T05:42:52;12.60;99.90
11963;DHT22;62678;52.130;5.584;2023-09-30T05:47:48;12.50;99.90
11963;DHT22;62678;52.130;5.584;2023-09-30T05:50:18;12.50;99.90
11963;DHT22;62678;52.130;5.584;2023-09-30T05:52:49;12.50;99.90
11963;DHT22;62678;52.130;5.584;2023-09-30T05:55:17;12.50;99.90
11963;DHT22;62678;52.130;5.584;2023-09-30T05:57:46;12.50;99.90
11963;DHT22;62678;52.130;5.584;2023-09-30T06:00:14;12.50;99.90
11963;DHT22;62678;52.130;5.584;2023-09-30T06:02:46;12.50;99.90
11963;DHT22;62678;52.130;5.584;2023-09-30T06:05:13;12.50;99.90
11963;DHT22;62678;52.130;5.584;2023-09-30T06:07:41;12.50;99.90
11963;DHT22;62678;52.130;5.584;2023-09-30T06:10:11;12.50;99.90
11963;DHT22;62678;52.130;5.584;2023-09-30T06:12:38;12.50;99.90
11963;DHT22;62678;52.130;5.584;2023-09-30T06:15:06;12.50;99.90
11963;DHT22;62678;52.130;5.584;2023-09-30T06:17:34;12.60;99.90
11963;DHT22;62678;52.130;5.584;2023-09-30T06:20:04;12.60;99.90
11963;DHT22;62678;52.130;5.584;2023-09-30T06:22:35;12.70;99.90
11963;DHT22;62678;52.130;5.584;2023-09-30T06:25:02;12.70;99.90
11963;DHT22;62678;52.130;5.584;2023-09-30T06:27:30;12.70;99.90
11963;DHT22;62678;52.130;5.584;2023-09-30T06:29:57;12.70;99.90
11963;DHT22;62678;52.130;5.584;2023-09-30T06:32:24;12.80;99.90
11963;DHT22;62678;52.130;5.584;2023-09-30T06:34:52;12.80;99.90
11963;DHT22;62678;52.130;5.584;2023-09-30T06:37:19;12.80;99.90
11963;DHT22;62678;52.130;5.584;2023-09-30T06:39:47;12.90;99.90
11963;DHT22;62678;52.130;5.584;2023-09-30T06:42:15;12.90;99.90
11963;DHT22;62678;52.130;5.584;2023-09-30T06:44:42;13.00;99.90
11963;DHT22;62678;52.130;5.584;2023-09-30T06:47:09;13.10;99.90
11963;DHT22;62678;52.130;5.584;2023-09-30T06:49:38;13.10;99.90
11963;DHT22;62678;52.130;5.584;2023-09-30T06:52:07;13.20;99.90
11963;DHT22;62678;52.130;5.584;2023-09-30T06:54:34;13.20;99.90
11963;DHT22;62678;52.130;5.584;2023-09-30T06:57:01;13.30;99.90
11963;DHT22;62678;52.130;5.584;2023-09-30T06:59:28;13.30;99.90
11963;DHT22;62678;52.130;5.584;2023-09-30T07:01:54;13.30;99.90
11963;DHT22;62678;52.130;5.584;2023-09-30T07:04:21;13.40;99.90
11963;DHT22;62678;52.130;5.584;2023-09-30T07:06:48;13.50;99.90
11963;DHT22;62678;52.130;5.584;2023-09-30T07:09:17;13.50;99.90
11963;DHT22;62678;52.130;5.584;2023-09-30T07:11:45;13.60;99.90
11963;DHT22;62678;52.130;5.584;2023-09-30T07:14:15;13.60;99.90
11963;DHT22;62678;52.130;5.584;2023-09-30T07:16:44;13.70;99.90
11963;DHT22;62678;52.130;5.584;2023-09-30T07:19:11;13.80;99.90
11963;DHT22;62678;52.130;5.584;2023-09-30T07:21:38;13.80;99.90
11963;DHT22;62678;52.130;5.584;2023-09-30T07:24:06;13.90;99.90
11963;DHT22;62678;52.130;5.584;2023-09-30T07:26:34;14.00;99.90
11963;DHT22;62678;52.130;5.584;2023-09-30T07:29:01;14.00;99.90
11963;DHT22;62678;52.130;5.584;2023-09-30T07:31:35;14.10;99.90
11963;DHT22;62678;52.130;5.584;2023-09-30T07:34:02;14.20;99.90
11963;DHT22;62678;52.130;5.584;2023-09-30T07:36:29;14.20;99.90
11963;DHT22;62678;52.130;5.584;2023-09-30T07:38:56;14.30;99.90
11963;DHT22;62678;52.130;5.584;2023-09-30T07:41:23;14.40;99.90
11963;DHT22;62678;52.130;5.584;2023-09-30T07:43:51;14.50;99.90
11963;DHT22;62678;52.130;5.584;2023-09-30T07:46:18;14.50;99.90
11963;DHT22;62678;52.130;5.584;2023-09-30T07:48:45;14.60;99.90
11963;DHT22;62678;52.130;5.584;2023-09-30T07:51:12;14.60;99.90
11963;DHT22;62678;52.130;5.584;2023-09-30T07:53:40;14.60;99.90
11963;DHT22;62678;52.130;5.584;2023-09-30T07:56:07;14.80;99.90
11963;DHT22;62678;52.130;5.584;2023-09-30T07:58:34;14.80;99.90
11963;DHT22;62678;52.130;5.584;2023-09-30T08:01:03;15.00;99.90
11963;DHT22;62678;52.130;5.584;2023-09-30T08:03:30;15.00;99.90
11963;DHT22;62678;52.130;5.584;2023-09-30T08:06:00;15.10;99.90
11963;DHT22;62678;52.130;5.584;2023-09-30T08:08:27;15.20;99.90
11963;DHT22;62678;52.130;5.584;2023-09-30T08:10:55;15.30;99.90
11963;DHT22;62678;52.130;5.584;2023-09-30T08:13:22;15.30;99.90
11963;DHT22;62678;52.130;5.584;2023-09-30T08:15:49;15.40;99.90
11963;DHT22;62678;52.130;5.584;2023-09-30T08:18:18;15.50;99.90
11963;DHT22;62678;52.130;5.584;2023-09-30T08:20:45;15.50;99.90
11963;DHT22;62678;52.130;5.584;2023-09-30T08:23:12;15.60;99.90
11963;DHT22;62678;52.130;5.584;2023-09-30T08:25:39;15.70;99.90
11963;DHT22;62678;52.130;5.584;2023-09-30T08:28:06;15.90;99.90
11963;DHT22;62678;52.130;5.584;2023-09-30T08:30:35;15.90;99.90
11963;DHT22;62678;52.130;5.584;2023-09-30T08:33:02;15.90;99.90
11963;DHT22;62678;52.130;5.584;2023-09-30T08:35:35;16.00;99.90
11963;DHT22;62678;52.130;5.584;2023-09-30T08:38:03;16.00;99.90
11963;DHT22;62678;52.130;5.584;2023-09-30T08:40:30;16.00;99.90
11963;DHT22;62678;52.130;5.584;2023-09-30T08:42:57;16.10;99.90
11963;DHT22;62678;52.130;5.584;2023-09-30T08:45:28;16.20;99.90
11963;DHT22;62678;52.130;5.584;2023-09-30T08:47:57;16.20;99.90
11963;DHT22;62678;52.130;5.584;2023-09-30T08:50:30;16.30;99.90
11963;DHT22;62678;52.130;5.584;2023-09-30T08:53:00;16.40;99.90
11963;DHT22;62678;52.130;5.584;2023-09-30T08:55:29;16.50;99.90
11963;DHT22;62678;52.130;5.584;2023-09-30T08:57:57;16.60;99.90
11963;DHT22;62678;52.130;5.584;2023-09-30T09:00:24;16.60;99.90
11963;DHT22;62678;52.130;5.584;2023-09-30T09:02:51;16.70;99.90
11963;DHT22;62678;52.130;5.584;2023-09-30T09:05:18;16.80;99.90
11963;DHT22;62678;52.130;5.584;2023-09-30T09:07:45;16.80;99.90
11963;DHT22;62678;52.130;5.584;2023-09-30T09:10:14;16.90;99.90
11963;DHT22;62678;52.130;5.584;2023-09-30T09:12:41;16.90;99.90
11963;DHT22;62678;52.130;5.584;2023-09-30T09:15:20;17.00;99.90
11963;DHT22;62678;52.130;5.584;2023-09-30T09:17:48;16.90;99.90
11963;DHT22;62678;52.130;5.584;2023-09-30T09:20:18;17.00;99.90
11963;DHT22;62678;52.130;5.584;2023-09-30T09:22:47;17.10;99.90
11963;DHT22;62678;52.130;5.584;2023-09-30T09:25:17;17.20;99.90
11963;DHT22;62678;52.130;5.584;2023-09-30T09:27:45;17.20;99.90
11963;DHT22;62678;52.130;5.584;2023-09-30T09:30:18;17.40;99.90
11963;DHT22;62678;52.130;5.584;2023-09-30T09:32:58;17.60;99.90
11963;DHT22;62678;52.130;5.584;2023-09-30T09:35:25;17.70;99.90
11963;DHT22;62678;52.130;5.584;2023-09-30T09:37:55;17.70;99.90
11963;DHT22;62678;52.130;5.584;2023-09-30T09:40:26;17.90;99.90
11963;DHT22;62678;52.130;5.584;2023-09-30T09:42:54;18.00;99.90
11963;DHT22;62678;52.130;5.584;2023-09-30T09:45:22;17.90;99.90
11963;DHT22;62678;52.130;5.584;2023-09-30T09:47:50;18.10;99.90
11963;DHT22;62678;52.130;5.584;2023-09-30T09:50:19;18.20;99.90
11963;DHT22;62678;52.130;5.584;2023-09-30T09:52:48;18.30;99.90
11963;DHT22;62678;52.130;5.584;2023-09-30T09:55:17;18.70;99.90
11963;DHT22;62678;52.130;5.584;2023-09-30T09:57:46;18.80;99.90
11963;DHT22;62678;52.130;5.584;2023-09-30T10:00:15;19.00;99.90
11963;DHT22;62678;52.130;5.584;2023-09-30T10:02:44;19.00;99.90
11963;DHT22;62678;52.130;5.584;2023-09-30T10:05:12;18.90;99.90
11963;DHT22;62678;52.130;5.584;2023-09-30T10:07:44;19.00;99.90
11963;DHT22;62678;52.130;5.584;2023-09-30T10:10:14;19.20;99.90
11963;DHT22;62678;52.130;5.584;2023-09-30T10:12:43;19.30;99.90
11963;DHT22;62678;52.130;5.584;2023-09-30T10:15:39;19.20;99.90
11963;DHT22;62678;52.130;5.584;2023-09-30T10:18:07;19.20;99.90
11963;DHT22;62678;52.130;5.584;2023-09-30T10:20:36;19.40;99.90
11963;DHT22;62678;52.130;5.584;2023-09-30T10:23:24;19.20;99.90
11963;DHT22;62678;52.130;5.584;2023-09-30T10:25:53;19.10;99.90
11963;DHT22;62678;52.130;5.584;2023-09-30T10:28:33;19.10;99.90
11963;DHT22;62678;52.130;5.584;2023-09-30T10:31:15;19.00;99.90
11963;DHT22;62678;52.130;5.584;2023-09-30T10:34:19;18.90;99.90
11963;DHT22;62678;52.130;5.584;2023-09-30T10:36:46;18.90;99.90
11963;DHT22;62678;52.130;5.584;2023-09-30T10:39:55;18.90;99.90
11963;DHT22;62678;52.130;5.584;2023-09-30T10:42:45;19.00;99.90
11963;DHT22;62678;52.130;5.584;2023-09-30T10:45:42;19.20;99.90
11963;DHT22;62678;52.130;5.584;2023-09-30T10:48:33;19.20;99.90
11963;DHT22;62678;52.130;5.584;2023-09-30T10:51:10;19.20;99.90
11963;DHT22;62678;52.130;5.584;2023-09-30T10:53:42;19.30;99.90
11963;DHT22;62678;52.130;5.584;2023-09-30T10:56:09;19.70;99.90
11963;DHT22;62678;52.130;5.584;2023-09-30T10:58:43;19.70;99.90
11963;DHT22;62678;52.130;5.584;2023-09-30T11:01:11;19.90;99.90
11963;DHT22;62678;52.130;5.584;2023-09-30T11:03:40;19.60;99.90
11963;DHT22;62678;52.130;5.584;2023-09-30T11:06:07;19.60;99.90
11963;DHT22;62678;52.130;5.584;2023-09-30T11:08:35;19.70;99.90
11963;DHT22;62678;52.130;5.584;2023-09-30T11:11:03;19.70;99.90
11963;DHT22;62678;52.130;5.584;2023-09-30T11:13:33;19.70;99.90
11963;DHT22;62678;52.130;5.584;2023-09-30T11:16:02;19.80;99.90
11963;DHT22;62678;52.130;5.584;2023-09-30T11:18:30;20.00;99.90
11963;DHT22;62678;52.130;5.584;2023-09-30T11:21:09;20.10;99.90
11963;DHT22;62678;52.130;5.584;2023-09-30T11:23:38;20.10;99.90
11963;DHT22;62678;52.130;5.584;2023-09-30T11:26:06;20.10;99.90
11963;DHT22;62678;52.130;5.584;2023-09-30T11:28:37;20.30;99.90
11963;DHT22;62678;52.130;5.584;2023-09-30T11:31:08;20.60;99.90
11963;DHT22;62678;52.130;5.584;2023-09-30T11:33:47;20.40;99.90
11963;DHT22;62678;52.130;5.584;2023-09-30T11:36:18;20.60;99.90
11963;DHT22;62678;52.130;5.584;2023-09-30T11:38:47;20.70;99.90
11963;DHT22;62678;52.130;5.584;2023-09-30T11:41:15;20.70;99.90
11963;DHT22;62678;52.130;5.584;2023-09-30T11:43:58;20.60;99.90
11963;DHT22;62678;52.130;5.584;2023-09-30T11:46:27;20.70;99.90
11963;DHT22;62678;52.130;5.584;2023-09-30T11:48:57;20.90;99.90
11963;DHT22;62678;52.130;5.584;2023-09-30T11:51:27;20.80;99.90
11963;DHT22;62678;52.130;5.584;2023-09-30T11:53:54;20.90;99.90
11963;DHT22;62678;52.130;5.584;2023-09-30T11:56:23;21.10;99.90
11963;DHT22;62678;52.130;5.584;2023-09-30T11:58:55;21.10;99.90
11963;DHT22;62678;52.130;5.584;2023-09-30T12:01:24;21.30;99.90
11963;DHT22;62678;52.130;5.584;2023-09-30T12:03:52;21.30;99.90
11963;DHT22;62678;52.130;5.584;2023-09-30T12:06:21;21.10;99.90
11963;DHT22;62678;52.130;5.584;2023-09-30T12:08:50;21.00;99.90
11963;DHT22;62678;52.130;5.584;2023-09-30T12:11:18;20.90;99.90
11963;DHT22;62678;52.130;5.584;2023-09-30T12:13:45;21.00;99.90
11963;DHT22;62678;52.130;5.584;2023-09-30T12:16:14;20.70;99.90
11963;DHT22;62678;52.130;5.584;2023-09-30T12:18:42;20.80;99.90
11963;DHT22;62678;52.130;5.584;2023-09-30T12:21:10;20.60;99.90
11963;DHT22;62678;52.130;5.584;2023-09-30T12:23:46;20.80;99.90
11963;DHT22;62678;52.130;5.584;2023-09-30T12:26:15;20.70;99.90
11963;DHT22;62678;52.130;5.584;2023-09-30T12:28:45;20.80;99.90
11963;DHT22;62678;52.130;5.584;2023-09-30T12:31:12;20.60;99.90
11963;DHT22;62678;52.130;5.584;2023-09-30T12:33:41;20.60;99.90
11963;DHT22;62678;52.130;5.584;2023-09-30T12:36:08;20.70;99.90
11963;DHT22;62678;52.130;5.584;2023-09-30T12:38:38;20.90;99.90
11963;DHT22;62678;52.130;5.584;2023-09-30T12:41:05;20.80;99.90
11963;DHT22;62678;52.130;5.584;2023-09-30T12:43:34;21.00;99.90
11963;DHT22;62678;52.130;5.584;2023-09-30T12:46:01;21.20;99.90
11963;DHT22;62678;52.130;5.584;2023-09-30T12:48:30;21.30;99.90
11963;DHT22;62678;52.130;5.584;2023-09-30T12:51:00;21.40;99.90
11963;DHT22;62678;52.130;5.584;2023-09-30T12:53:30;21.30;99.90
11963;DHT22;62678;52.130;5.584;2023-09-30T12:55:58;21.20;99.90
11963;DHT22;62678;52.130;5.584;2023-09-30T12:58:25;21.30;99.90
11963;DHT22;62678;52.130;5.584;2023-09-30T13:00:54;21.10;99.90
11963;DHT22;62678;52.130;5.584;2023-09-30T13:03:24;21.10;99.90
11963;DHT22;62678;52.130;5.584;2023-09-30T13:05:51;20.90;99.90
11963;DHT22;62678;52.130;5.584;2023-09-30T13:08:19;21.10;99.90
11963;DHT22;62678;52.130;5.584;2023-09-30T13:10:49;21.10;99.90
11963;DHT22;62678;52.130;5.584;2023-09-30T13:13:18;21.20;99.90
11963;DHT22;62678;52.130;5.584;2023-09-30T13:15:48;21.30;99.90
11963;DHT22;62678;52.130;5.584;2023-09-30T13:18:17;21.30;99.90
11963;DHT22;62678;52.130;5.584;2023-09-30T13:20:45;21.20;99.90
11963;DHT22;62678;52.130;5.584;2023-09-30T13:23:12;21.10;99.90
11963;DHT22;62678;52.130;5.584;2023-09-30T13:25:39;21.00;99.90
11963;DHT22;62678;52.130;5.584;2023-09-30T13:28:06;21.10;99.90
11963;DHT22;62678;52.130;5.584;2023-09-30T13:30:34;21.30;99.90
11963;DHT22;62678;52.130;5.584;2023-09-30T13:33:02;21.30;99.90
11963;DHT22;62678;52.130;5.584;2023-09-30T13:35:31;21.10;99.90
11963;DHT22;62678;52.130;5.584;2023-09-30T13:37:59;21.10;99.90
11963;DHT22;62678;52.130;5.584;2023-09-30T13:40:26;21.10;99.90
11963;DHT22;62678;52.130;5.584;2023-09-30T13:42:54;21.00;99.90
11963;DHT22;62678;52.130;5.584;2023-09-30T13:45:23;21.20;99.90
11963;DHT22;62678;52.130;5.584;2023-09-30T13:47:50;21.00;99.90
11963;DHT22;62678;52.130;5.584;2023-09-30T13:50:17;20.80;99.90
11963;DHT22;62678;52.130;5.584;2023-09-30T13:52:45;20.70;99.90
11963;DHT22;62678;52.130;5.584;2023-09-30T13:55:12;20.70;99.90
11963;DHT22;62678;52.130;5.584;2023-09-30T13:57:44;20.90;99.90
11963;DHT22;62678;52.130;5.584;2023-09-30T14:00:12;20.80;99.90
11963;DHT22;62678;52.130;5.584;2023-09-30T14:02:39;20.80;99.90
11963;DHT22;62678;52.130;5.584;2023-09-30T14:05:07;20.70;99.90
11963;DHT22;62678;52.130;5.584;2023-09-30T14:07:34;20.90;99.90
11963;DHT22;62678;52.130;5.584;2023-09-30T14:10:02;21.00;99.90
11963;DHT22;62678;52.130;5.584;2023-09-30T14:12:31;21.00;99.90
11963;DHT22;62678;52.130;5.584;2023-09-30T14:14:58;21.10;99.90
11963;DHT22;62678;52.130;5.584;2023-09-30T14:17:25;21.10;99.90
11963;DHT22;62678;52.130;5.584;2023-09-30T14:19:52;20.90;99.90
11963;DHT22;62678;52.130;5.584;2023-09-30T14:22:19;20.80;99.90
11963;DHT22;62678;52.130;5.584;2023-09-30T14:24:46;20.50;99.90
11963;DHT22;62678;52.130;5.584;2023-09-30T14:27:14;20.50;99.90
11963;DHT22;62678;52.130;5.584;2023-09-30T14:29:42;20.60;99.90
11963;DHT22;62678;52.130;5.584;2023-09-30T14:32:09;20.70;99.90
11963;DHT22;62678;52.130;5.584;2023-09-30T14:34:36;21.00;99.90
11963;DHT22;62678;52.130;5.584;2023-09-30T14:37:03;21.20;99.90
11963;DHT22;62678;52.130;5.584;2023-09-30T14:39:31;21.30;99.90
11963;DHT22;62678;52.130;5.584;2023-09-30T14:41:58;21.40;99.90
11963;DHT22;62678;52.130;5.584;2023-09-30T14:44:26;21.40;99.90
11963;DHT22;62678;52.130;5.584;2023-09-30T14:46:53;21.30;99.90
11963;DHT22;62678;52.130;5.584;2023-09-30T14:49:21;21.20;99.90
11963;DHT22;62678;52.130;5.584;2023-09-30T14:51:48;21.30;99.90
11963;DHT22;62678;52.130;5.584;2023-09-30T14:54:16;21.10;99.90
11963;DHT22;62678;52.130;5.584;2023-09-30T14:56:43;21.00;99.90
11963;DHT22;62678;52.130;5.584;2023-09-30T14:59:10;20.90;99.90
11963;DHT22;62678;52.130;5.584;2023-09-30T15:01:38;21.00;99.90
11963;DHT22;62678;52.130;5.584;2023-09-30T15:04:06;20.80;99.90
11963;DHT22;62678;52.130;5.584;2023-09-30T15:06:35;20.70;99.90
11963;DHT22;62678;52.130;5.584;2023-09-30T15:09:02;20.70;99.90
11963;DHT22;62678;52.130;5.584;2023-09-30T15:11:30;20.50;99.90
11963;DHT22;62678;52.130;5.584;2023-09-30T15:13:57;20.60;99.90
11963;DHT22;62678;52.130;5.584;2023-09-30T15:16:24;20.70;99.90
11963;DHT22;62678;52.130;5.584;2023-09-30T15:18:53;20.80;99.90
11963;DHT22;62678;52.130;5.584;2023-09-30T15:21:20;21.30;99.90
11963;DHT22;62678;52.130;5.584;2023-09-30T15:23:47;21.90;99.90
11963;DHT22;62678;52.130;5.584;2023-09-30T15:26:16;22.10;99.90
11963;DHT22;62678;52.130;5.584;2023-09-30T15:28:43;22.20;99.90
11963;DHT22;62678;52.130;5.584;2023-09-30T15:31:11;22.00;99.90
11963;DHT22;62678;52.130;5.584;2023-09-30T15:33:38;22.00;99.90
11963;DHT22;62678;52.130;5.584;2023-09-30T15:36:16;21.70;99.90
11963;DHT22;62678;52.130;5.584;2023-09-30T15:38:44;21.40;99.90
11963;DHT22;62678;52.130;5.584;2023-09-30T15:41:13;21.10;99.90